Time;durP1;ratioP1;P1;durP2;ratioP2;P2;SDS_P1;SDS_P2;PMS_P1;PMS_P2;Temp;Humidity;BMP_temperature;BMP_pressure;BME280_temperature;BME280_humidity;BME280_pressure;Samples;Min_cycle;Max_cycle;Signal;HPM_P1;HPM_P2
2022/08/30 00:01:26;;;;;;;7.37;5.77;;;;;;;19.96;72.77;156494.31;5070704;28;20488;-80
2022/08/30 00:03:53;;;;;;;6.20;5.60;;;;;;;19.95;72.25;156493.00;5072087;28;20431;-80
2022/08/30 00:06:21;;;;;;;6.93;6.23;;;;;;;19.98;72.02;156499.50;5072154;28;20422;-80
2022/08/30 00:08:48;;;;;;;6.00;5.23;;;;;;;19.95;71.88;156491.69;5070976;28;20479;-80
2022/08/30 00:11:18;;;;;;;6.20;5.20;;;;;;;19.98;72.55;156499.50;5072216;28;20767;-80
2022/08/30 00:13:48;;;;;;;6.97;6.27;;;;;;;19.91;73.10;156481.22;5072333;28;20436;-80
2022/08/30 00:16:16;;;;;;;6.37;5.77;;;;;;;19.81;76.51;156456.47;5104342;28;20466;-80
2022/08/30 00:18:43;;;;;;;6.30;5.70;;;;;;;19.75;75.50;156440.81;5070675;28;20441;-80
2022/08/30 00:21:11;;;;;;;7.00;5.93;;;;;;;19.70;75.49;156426.47;5071011;28;20442;-80
2022/08/30 00:23:38;;;;;;;7.80;6.07;;;;;;;19.61;77.80;156404.34;5070649;28;20523;-80
2022/08/30 00:26:06;;;;;;;6.03;5.50;;;;;;;19.50;82.19;156374.34;5071794;28;20437;-80
2022/08/30 00:28:33;;;;;;;7.00;6.00;;;;;;;19.41;79.76;156352.16;5071992;28;20464;-80
2022/08/30 00:31:02;;;;;;;7.60;6.63;;;;;;;19.35;80.15;156337.78;5070804;28;20787;-80
2022/08/30 00:33:29;;;;;;;7.47;6.57;;;;;;;19.36;80.42;156340.41;5070554;28;20474;-80
2022/08/30 00:35:56;;;;;;;9.33;6.37;;;;;;;19.33;78.54;156332.56;5070159;28;20948;-80
2022/08/30 00:38:23;;;;;;;7.17;6.47;;;;;;;19.30;77.91;156324.75;5104346;28;20524;-80
2022/08/30 00:40:50;;;;;;;7.47;6.80;;;;;;;19.31;79.49;156326.06;5072201;28;20664;-80
2022/08/30 00:43:21;;;;;;;8.23;6.80;;;;;;;19.23;80.81;156305.19;5104116;28;20494;-80
2022/08/30 00:45:49;;;;;;;7.30;6.60;;;;;;;19.18;82.93;156293.50;5071329;28;20866;-80
2022/08/30 00:48:17;;;;;;;8.20;6.60;;;;;;;19.12;82.21;156277.84;5104093;28;20478;-82
2022/08/30 00:50:47;;;;;;;6.90;6.10;;;;;;;19.06;81.13;156262.19;5071688;28;20921;-80
2022/08/30 00:53:17;;;;;;;6.37;5.77;;;;;;;19.03;80.31;156253.09;5071392;28;20430;-82
2022/08/30 00:55:44;;;;;;;6.93;6.23;;;;;;;19.05;79.49;156258.28;5071038;28;20470;-81
2022/08/30 00:58:15;;;;;;;7.10;5.77;;;;;;;19.11;78.63;156273.94;5071642;28;20815;-81
2022/08/30 01:00:42;;;;;;;7.50;6.80;;;;;;;19.21;77.41;156301.31;5071678;28;20442;-81
2022/08/30 01:03:09;;;;;;;7.00;6.40;;;;;;;19.31;75.16;156327.38;5104297;28;20501;-82
2022/08/30 01:05:38;;;;;;;7.40;6.70;;;;;;;19.33;76.79;156332.56;5071553;28;20532;-80
2022/08/30 01:08:05;;;;;;;8.80;6.43;;;;;;;19.25;75.98;156310.41;5069968;28;20438;-82
2022/08/30 01:10:33;;;;;;;6.70;6.10;;;;;;;19.20;75.98;156297.38;5053408;28;20485;-80
2022/08/30 01:13:00;;;;;;;6.77;6.17;;;;;;;19.15;77.33;156284.34;5054602;28;20441;-80
2022/08/30 01:15:27;;;;;;;6.70;5.90;;;;;;;19.07;78.93;156263.50;5074137;28;20492;-80
2022/08/30 01:17:54;;;;;;;6.93;6.33;;;;;;;18.96;81.30;156236.13;5075245;28;20493;-80
2022/08/30 01:20:24;;;;;;;7.47;6.77;;;;;;;18.91;81.75;156221.78;5075359;28;20837;-80
2022/08/30 01:23:06;;;;;;;6.40;5.80;;;;;;;18.85;81.96;156207.47;5074204;28;20540;-80
2022/08/30 01:25:34;;;;;;;6.23;5.63;;;;;;;18.81;81.31;156197.06;5107931;28;20476;-79
2022/08/30 01:28:05;;;;;;;6.60;6.00;;;;;;;18.77;81.39;156186.66;5074349;28;20434;-80
2022/08/30 01:30:32;;;;;;;7.73;6.93;;;;;;;18.71;82.10;156172.31;5075203;28;20445;-80
2022/08/30 01:33:00;;;;;;;7.50;6.77;;;;;;;18.67;83.33;156160.56;5073935;28;20519;-79
2022/08/30 01:35:44;;;;;;;7.50;6.50;;;;;;;18.61;82.84;156144.97;5107766;28;20476;-80
2022/08/30 01:38:14;;;;;;;6.90;6.30;;;;;;;18.60;83.71;156143.66;5090341;28;20525;-80
2022/08/30 01:40:41;;;;;;;7.60;6.90;;;;;;;18.56;84.99;156133.19;5075165;28;20438;-80
2022/08/30 01:43:08;;;;;;;6.60;6.00;;;;;;;18.56;83.36;156131.94;5073630;28;20448;-80
2022/08/30 01:45:35;;;;;;;7.83;7.03;;;;;;;18.54;84.39;156126.69;5107436;28;20453;-80
2022/08/30 01:48:01;;;;;;;6.60;6.00;;;;;;;18.53;84.88;156124.13;5074511;28;20484;-80
2022/08/30 01:50:28;;;;;;;10.53;6.30;;;;;;;18.55;81.65;156129.31;5056865;28;20528;-82
2022/08/30 01:52:55;;;;;;;6.87;6.27;;;;;;;18.56;82.87;156133.19;5074804;28;20516;-80
2022/08/30 01:55:23;;;;;;;7.43;5.77;;;;;;;18.55;82.26;156129.31;5074947;28;20462;-82
2022/08/30 01:57:50;;;;;;;8.63;6.33;;;;;;;18.50;84.26;156116.31;5074708;28;20507;-80
2022/08/30 02:00:18;;;;;;;7.53;6.70;;;;;;;18.49;83.53;156113.66;5073249;28;20495;-80
2022/08/30 02:02:45;;;;;;;7.80;6.27;;;;;;;18.44;84.00;156100.59;5106975;28;20722;-80
2022/08/30 02:05:11;;;;;;;6.90;6.30;;;;;;;18.38;85.79;156084.97;5073205;28;20440;-80
2022/08/30 02:07:38;;;;;;;6.90;6.20;;;;;;;18.34;86.54;156074.56;5089894;28;20781;-80
2022/08/30 02:10:06;;;;;;;7.07;6.30;;;;;;;18.29;85.90;156061.53;5090066;28;20476;-80
2022/08/30 02:12:34;;;;;;;7.37;6.67;;;;;;;18.25;86.82;156052.41;5074885;28;20434;-82
2022/08/30 02:15:01;;;;;;;7.57;6.77;;;;;;;18.20;86.63;156040.69;5074208;28;20445;-82
2022/08/30 02:17:27;;;;;;;8.00;6.80;;;;;;;18.17;85.91;156032.88;5089460;28;20508;-80
2022/08/30 02:19:54;;;;;;;8.03;6.93;;;;;;;18.25;84.04;156052.41;5074065;28;20427;-80
2022/08/30 02:22:21;;;;;;;7.93;7.13;;;;;;;18.29;83.10;156062.84;5107053;28;20545;-81
2022/08/30 02:24:48;;;;;;;7.53;6.60;;;;;;;18.30;84.05;156064.13;5089485;28;20418;-82
2022/08/30 02:27:14;;;;;;;8.20;5.60;;;;;;;18.25;82.85;156052.41;5073534;28;20815;-82
2022/08/30 02:29:43;;;;;;;7.87;6.80;;;;;;;18.29;84.08;156061.53;5089663;28;20552;-81
2022/08/30 02:32:09;;;;;;;7.13;6.40;;;;;;;18.24;83.94;156051.09;5089908;28;20533;-81
2022/08/30 02:34:36;;;;;;;6.30;5.80;;;;;;;18.21;83.96;156043.28;5074075;28;20517;-81
2022/08/30 02:37:03;;;;;;;7.23;6.53;;;;;;;18.19;83.71;156038.09;5089183;28;20484;-81
2022/08/30 02:39:30;;;;;;;7.50;6.80;;;;;;;18.23;83.83;156047.22;5073913;28;20454;-82
2022/08/30 02:41:56;;;;;;;7.73;6.97;;;;;;;18.20;82.93;156040.69;5073910;28;20438;-82
2022/08/30 02:44:23;;;;;;;7.43;6.73;;;;;;;18.18;82.53;156034.19;5072551;28;20821;-82
2022/08/30 02:46:51;;;;;;;6.37;5.87;;;;;;;18.08;86.61;156009.41;5073955;28;20541;-81
2022/08/30 02:49:18;;;;;;;8.00;6.90;;;;;;;18.01;84.88;155989.88;5073778;28;20433;-82
2022/08/30 02:51:45;;;;;;;6.70;6.00;;;;;;;17.98;84.54;155982.06;5072217;28;20462;-82
2022/08/30 02:54:14;;;;;;;7.10;6.40;;;;;;;17.92;85.27;155966.50;5073531;28;20444;-82
2022/08/30 02:56:42;;;;;;;7.03;6.33;;;;;;;17.88;85.32;155957.34;5073218;28;20832;-81
2022/08/30 02:59:08;;;;;;;7.53;6.60;;;;;;;17.84;87.65;155946.97;5089148;28;20453;-81
2022/08/30 03:01:37;;;;;;;7.57;6.80;;;;;;;17.77;85.53;155928.69;5089117;28;20464;-82
2022/08/30 03:04:06;;;;;;;7.60;6.77;;;;;;;17.75;87.14;155923.50;5072049;28;20870;-82
2022/08/30 03:06:33;;;;;;;8.50;6.27;;;;;;;17.70;87.48;155910.50;5088801;28;20434;-82
2022/08/30 03:08:59;;;;;;;6.77;6.17;;;;;;;17.66;86.63;155900.06;5072004;28;20496;-82
2022/08/30 03:11:26;;;;;;;7.93;7.13;;;;;;;17.64;88.81;155896.16;5073596;28;20434;-82
2022/08/30 03:13:53;;;;;;;9.10;7.10;;;;;;;17.64;87.63;155894.84;5071960;28;20936;-81
2022/08/30 03:16:21;;;;;;;7.10;6.40;;;;;;;17.63;89.02;155892.28;5088661;28;20510;-82
2022/08/30 03:18:48;;;;;;;7.33;6.60;;;;;;;17.61;88.51;155887.03;5072147;28;20445;-82
2022/08/30 03:21:17;;;;;;;6.90;6.20;;;;;;;17.57;88.46;155877.97;5073411;28;20478;-82
2022/08/30 03:23:44;;;;;;;7.70;6.83;;;;;;;17.57;89.62;155876.66;5072848;28;20521;-82
2022/08/30 03:26:13;;;;;;;7.20;6.50;;;;;;;17.54;89.22;155868.84;5072492;28;20465;-81
2022/08/30 03:28:40;;;;;;;7.57;6.43;;;;;;;17.50;89.74;155858.38;5072528;28;20446;-81
2022/08/30 03:31:08;;;;;;;7.83;7.03;;;;;;;17.49;90.63;155855.78;5088746;28;20541;-82
2022/08/30 03:33:34;;;;;;;7.47;6.80;;;;;;;17.46;90.37;155847.94;5088534;28;20449;-82
2022/08/30 03:36:01;;;;;;;8.50;6.63;;;;;;;17.42;90.14;155837.56;5071998;28;20470;-82
2022/08/30 03:38:29;;;;;;;7.30;6.53;;;;;;;17.41;90.18;155834.94;5072783;28;20418;-82
2022/08/30 03:40:56;;;;;;;7.30;6.20;;;;;;;17.38;90.48;155828.44;5088374;28;20513;-82
2022/08/30 03:43:23;;;;;;;8.20;7.40;;;;;;;17.44;89.46;155842.75;5072636;28;20946;-82
2022/08/30 03:45:49;;;;;;;9.53;7.17;;;;;;;17.47;88.95;155851.84;5088236;28;20544;-82
2022/08/30 03:48:16;;;;;;;10.60;7.00;;;;;;;17.47;88.24;155851.84;5087830;28;20441;-82
2022/08/30 03:50:43;;;;;;;9.60;7.70;;;;;;;17.47;88.47;155850.56;5071132;28;20802;-82
2022/08/30 03:53:10;;;;;;;8.37;7.67;;;;;;;17.45;89.04;155845.34;5088221;28;20434;-82
2022/08/30 03:55:38;;;;;;;9.37;7.80;;;;;;;17.44;90.18;155842.75;5072512;28;20530;-82
2022/08/30 03:58:05;;;;;;;8.60;7.70;;;;;;;17.43;89.33;155840.13;5050878;28;20471;-82
2022/08/30 04:00:32;;;;;;;8.43;7.70;;;;;;;17.44;89.51;155842.75;5067632;28;20554;-81
2022/08/30 04:02:58;;;;;;;8.97;8.07;;;;;;;17.40;89.09;155832.31;5052362;28;20534;-82
2022/08/30 04:05:26;;;;;;;10.03;8.13;;;;;;;17.39;89.67;155829.75;5050977;28;20844;-82
2022/08/30 04:07:53;;;;;;;9.50;8.60;;;;;;;17.39;89.94;155831.06;5050737;28;20431;-81
2022/08/30 04:10:20;;;;;;;9.87;8.87;;;;;;;17.42;89.87;155838.81;5052050;28;20439;-81
2022/08/30 04:12:48;;;;;;;9.83;8.83;;;;;;;17.42;90.21;155838.81;5067585;28;20438;-81
2022/08/30 04:15:16;;;;;;;10.23;9.13;;;;;;;17.46;90.00;155847.94;5050704;28;20994;-81
2022/08/30 04:17:43;;;;;;;10.67;8.70;;;;;;;17.42;90.63;155838.81;5051743;28;20477;-81
2022/08/30 04:20:10;;;;;;;11.37;9.57;;;;;;;17.39;90.14;155829.75;5050704;28;20516;-81
2022/08/30 04:22:37;;;;;;;10.07;9.07;;;;;;;17.32;90.32;155811.50;5052131;28;20463;-80
2022/08/30 04:25:05;;;;;;;11.93;9.27;;;;;;;17.30;91.43;155806.28;5067358;28;20856;-80
2022/08/30 04:27:32;;;;;;;8.93;8.13;;;;;;;17.22;92.37;155785.47;5053720;28;20449;-80
2022/08/30 04:30:00;;;;;;;9.33;8.43;;;;;;;17.19;92.48;155777.66;5067356;28;20852;-80
2022/08/30 04:32:27;;;;;;;9.90;8.63;;;;;;;17.18;92.51;155776.41;5052410;28;20435;-80
2022/08/30 04:34:56;;;;;;;10.17;8.47;;;;;;;17.11;93.22;155758.16;5050523;28;20518;-80
2022/08/30 04:37:23;;;;;;;8.90;8.00;;;;;;;17.06;93.00;155745.13;5050388;28;20524;-80
2022/08/30 04:39:50;;;;;;;10.00;8.77;;;;;;;17.00;92.69;155729.50;5050452;28;20817;-81
2022/08/30 04:42:17;;;;;;;10.93;9.03;;;;;;;17.00;92.95;155729.50;5052245;28;20550;-80
2022/08/30 04:44:44;;;;;;;14.53;8.27;;;;;;;17.01;92.49;155732.13;5033975;28;20917;-80
2022/08/30 04:47:12;;;;;;;10.00;8.30;;;;;;;17.00;92.79;155730.81;5066976;28;20439;-81
2022/08/30 04:49:39;;;;;;;10.87;9.70;;;;;;;17.01;93.24;155733.44;5067197;28;20442;-80
2022/08/30 04:52:07;;;;;;;10.53;9.53;;;;;;;17.03;94.16;155737.31;5066541;28;20845;-80
2022/08/30 04:54:34;;;;;;;11.83;9.57;;;;;;;17.01;95.20;155733.44;5051686;28;20514;-80
2022/08/30 04:57:01;;;;;;;10.40;9.30;;;;;;;17.01;95.08;155732.13;5060834;28;21087;-81
2022/08/30 04:59:28;;;;;;;15.60;9.77;;;;;;;17.04;95.45;155741.25;5070445;28;20469;-81
2022/08/30 05:01:55;;;;;;;14.17;11.07;;;;;;;17.09;95.27;155752.94;5104257;28;20445;-81
2022/08/30 05:04:23;;;;;;;12.90;9.87;;;;;;;17.12;96.60;155760.78;5070375;28;20473;-81
2022/08/30 05:06:50;;;;;;;12.03;10.80;;;;;;;17.14;95.94;155764.66;5070182;28;20863;-80
2022/08/30 05:09:16;;;;;;;13.20;10.33;;;;;;;17.17;96.35;155772.47;5071443;28;20794;-82
2022/08/30 05:11:44;;;;;;;11.20;10.00;;;;;;;17.27;94.14;155798.47;5071315;28;20986;-81
2022/08/30 05:14:11;;;;;;;12.07;10.67;;;;;;;17.33;95.16;155814.13;5070233;28;20442;-80
2022/08/30 05:16:38;;;;;;;10.33;9.43;;;;;;;17.34;94.04;155818.00;5071213;28;20476;-80
2022/08/30 05:19:06;;;;;;;11.37;10.27;;;;;;;17.40;93.51;155833.63;5071122;28;20440;-81
2022/08/30 05:21:34;;;;;;;11.30;10.10;;;;;;;17.45;92.67;155845.34;5069902;28;20438;-80
2022/08/30 05:24:01;;;;;;;9.80;8.70;;;;;;;17.51;92.73;155860.97;5071503;28;20432;-81
2022/08/30 05:26:30;;;;;;;11.67;10.47;;;;;;;17.60;93.10;155884.47;5070038;28;20465;-81
2022/08/30 05:28:57;;;;;;;12.90;10.90;;;;;;;17.72;92.72;155915.69;5069902;28;20460;-81
2022/08/30 05:31:25;;;;;;;11.60;10.40;;;;;;;17.81;92.14;155939.16;5069915;28;20561;-81
2022/08/30 05:33:53;;;;;;;14.03;10.20;;;;;;;17.95;91.97;155974.31;5071296;28;20967;-81
2022/08/30 05:36:22;;;;;;;11.93;10.63;;;;;;;18.06;91.69;156004.22;5071590;28;21043;-81
2022/08/30 05:38:50;;;;;;;10.93;9.57;;;;;;;18.14;92.90;156023.75;5069631;28;20929;-80
2022/08/30 05:41:18;;;;;;;10.83;9.73;;;;;;;18.29;92.03;156061.53;5071118;28;20430;-81
2022/08/30 05:43:45;;;;;;;11.43;9.93;;;;;;;18.48;91.41;156111.09;5071471;28;20434;-80
2022/08/30 05:46:17;;;;;;;9.90;9.00;;;;;;;18.68;88.81;156163.19;5086636;28;20453;-80
2022/08/30 05:48:45;;;;;;;10.57;9.57;;;;;;;18.61;88.77;156144.97;5069545;28;20471;-80
2022/08/30 05:51:15;;;;;;;11.77;9.20;;;;;;;18.65;89.10;156155.38;5071293;28;20781;-80
2022/08/30 05:53:42;;;;;;;11.00;9.90;;;;;;;18.60;88.78;156142.34;5069926;28;20488;-80
2022/08/30 05:56:13;;;;;;;10.60;9.50;;;;;;;18.71;89.55;156172.31;5070957;28;20478;-80
2022/08/30 05:58:40;;;;;;;12.93;9.93;;;;;;;18.98;88.56;156241.38;5087082;28;20509;-80
2022/08/30 06:01:07;;;;;;;11.40;10.07;;;;;;;19.20;88.08;156297.38;5075038;28;20430;-80
2022/08/30 06:03:34;;;;;;;13.10;10.40;;;;;;;19.29;86.68;156322.16;5073397;28;20525;-80
2022/08/30 06:06:01;;;;;;;14.03;10.60;;;;;;;19.33;86.55;156332.56;5074693;28;20448;-80
2022/08/30 06:08:27;;;;;;;11.80;10.70;;;;;;;19.56;86.43;156391.31;5072995;28;20426;-80
2022/08/30 06:10:54;;;;;;;11.33;10.33;;;;;;;19.81;84.36;156455.16;5074778;28;20427;-80
2022/08/30 06:13:22;;;;;;;12.20;10.80;;;;;;;19.96;83.90;156494.31;5073209;28;20465;-81
2022/08/30 06:15:51;;;;;;;11.93;10.73;;;;;;;20.19;84.37;156554.28;5072872;28;20465;-80
2022/08/30 06:18:18;;;;;;;10.57;9.57;;;;;;;20.49;84.01;156632.56;5074076;28;20477;-81
2022/08/30 06:20:47;;;;;;;12.53;10.17;;;;;;;20.88;82.60;156731.75;5072910;28;20442;-80
2022/08/30 06:23:16;;;;;;;11.07;10.07;;;;;;;21.14;79.00;156799.63;5074238;28;20431;-80
2022/08/30 06:25:43;;;;;;;10.10;9.10;;;;;;;21.42;77.97;156871.44;5073971;28;20449;-80
2022/08/30 06:28:10;;;;;;;10.90;9.20;;;;;;;21.59;77.43;156917.13;5072719;28;20785;-80
2022/08/30 06:30:40;;;;;;;10.87;9.77;;;;;;;21.75;75.62;156957.59;5074242;28;20955;-80
2022/08/30 06:33:07;;;;;;;10.17;9.13;;;;;;;21.83;75.18;156979.78;5089849;28;20792;-80
2022/08/30 06:35:34;;;;;;;10.73;9.73;;;;;;;21.96;73.87;157011.16;5074051;28;20827;-80
2022/08/30 06:38:00;;;;;;;11.13;9.97;;;;;;;22.12;73.38;157052.94;5089075;28;20476;-80
2022/08/30 06:40:27;;;;;;;10.73;9.07;;;;;;;22.32;73.33;157105.16;5074323;28;20461;-82
2022/08/30 06:42:54;;;;;;;10.57;9.67;;;;;;;22.60;71.02;157177.03;5074214;28;20458;-82
2022/08/30 06:45:21;;;;;;;10.23;9.20;;;;;;;22.87;70.49;157248.97;5089396;28;20434;-82
2022/08/30 06:47:49;;;;;;;9.93;9.00;;;;;;;23.18;69.44;157327.34;5073338;28;20422;-83
2022/08/30 06:50:17;;;;;;;9.23;8.43;;;;;;;23.34;67.59;157369.16;5072215;28;20571;-80
2022/08/30 06:52:44;;;;;;;10.80;9.70;;;;;;;23.47;67.02;157403.19;5106351;28;20433;-81
2022/08/30 06:55:12;;;;;;;12.00;10.90;;;;;;;23.40;66.52;157384.91;5073805;28;20427;-80
2022/08/30 06:57:39;;;;;;;8.90;8.13;;;;;;;23.39;66.59;157383.59;5071749;28;20496;-82
2022/08/30 07:00:09;;;;;;;9.20;8.30;;;;;;;23.37;67.08;157377.06;5073538;28;20560;-82
2022/08/30 07:02:36;;;;;;;9.73;8.83;;;;;;;23.41;67.02;157387.50;5089158;28;20466;-82
2022/08/30 07:05:05;;;;;;;13.90;9.10;;;;;;;23.43;66.44;157394.03;5073489;28;20516;-80
2022/08/30 07:07:32;;;;;;;9.53;8.60;;;;;;;23.71;65.34;157465.94;5073287;28;20449;-82
2022/08/30 07:09:58;;;;;;;7.93;7.23;;;;;;;23.90;63.62;157515.63;5088163;28;20439;-82
2022/08/30 07:12:25;;;;;;;9.13;8.00;;;;;;;24.08;62.91;157561.38;5088843;28;20457;-80
2022/08/30 07:14:52;;;;;;;8.93;8.03;;;;;;;24.23;61.38;157601.97;5106011;28;20446;-80
2022/08/30 07:20:05;;;;;;;8.20;6.70;;;;;;;24.46;61.14;157659.53;5088979;28;20419;-79
2022/08/30 07:22:32;;;;;;;7.87;7.07;;;;;;;24.64;60.06;157706.63;5073601;28;20910;-80
2022/08/30 07:24:59;;;;;;;7.93;7.23;;;;;;;24.91;59.56;157777.31;5072674;28;20434;-81
2022/08/30 07:27:26;;;;;;;8.40;7.70;;;;;;;25.09;59.32;157823.09;5073038;28;20437;-80
2022/08/30 07:29:52;;;;;;;7.43;6.60;;;;;;;25.02;57.67;157804.78;5088736;28;20442;-80
2022/08/30 07:32:19;;;;;;;7.43;6.73;;;;;;;24.92;57.89;157778.59;5073192;28;20473;-80
2022/08/30 07:34:46;;;;;;;7.53;6.43;;;;;;;24.80;58.38;157749.84;5088483;28;20488;-79
2022/08/30 07:37:14;;;;;;;8.17;7.37;;;;;;;24.96;58.73;157790.41;5088450;28;20581;-80
2022/08/30 07:39:40;;;;;;;7.80;7.00;;;;;;;25.03;57.80;157807.38;5054869;28;20621;-80
2022/08/30 07:42:07;;;;;;;8.60;7.90;;;;;;;25.15;57.62;157838.81;5072965;28;20540;-79
2022/08/30 07:44:34;;;;;;;8.43;7.73;;;;;;;24.83;58.95;157757.66;5088459;28;20516;-79
2022/08/30 07:47:00;;;;;;;9.93;7.40;;;;;;;24.71;59.33;157724.91;5088371;28;20553;-79
2022/08/30 07:49:27;;;;;;;7.13;6.43;;;;;;;24.64;60.17;157706.63;5070958;28;20963;-79
2022/08/30 07:51:54;;;;;;;8.03;7.23;;;;;;;24.43;60.32;157651.69;5105242;28;20454;-79
2022/08/30 07:54:22;;;;;;;8.23;7.43;;;;;;;24.37;60.77;157635.97;5071194;28;20493;-79
2022/08/30 07:56:49;;;;;;;8.13;7.33;;;;;;;24.31;60.47;157620.25;5072258;28;20477;-80
2022/08/30 07:59:16;;;;;;;7.63;6.80;;;;;;;24.61;61.05;157698.75;5070478;28;20470;-80
2022/08/30 08:01:43;;;;;;;8.57;7.87;;;;;;;24.88;59.45;157768.16;5072183;28;20496;-80
2022/08/30 08:04:09;;;;;;;8.20;7.50;;;;;;;25.06;59.02;157815.25;5071353;28;20841;-80
2022/08/30 08:06:38;;;;;;;8.10;7.23;;;;;;;25.35;58.62;157891.13;5071271;28;20437;-80
2022/08/30 08:09:05;;;;;;;7.63;6.93;;;;;;;25.56;58.90;157944.84;5087349;28;20488;-80
2022/08/30 08:11:34;;;;;;;8.10;7.37;;;;;;;25.60;57.95;157955.34;5072051;28;20438;-80
2022/08/30 08:14:01;;;;;;;8.87;7.10;;;;;;;25.91;57.42;158037.81;5072066;28;20465;-80
2022/08/30 08:16:30;;;;;;;7.20;6.60;;;;;;;26.04;57.53;158070.53;5072237;28;20533;-80
2022/08/30 08:18:57;;;;;;;8.10;7.40;;;;;;;26.30;56.64;158138.66;5087301;28;20519;-80
2022/08/30 08:21:25;;;;;;;7.73;7.13;;;;;;;26.31;55.35;158139.97;5104585;28;20452;-80
2022/08/30 08:23:51;;;;;;;8.27;7.30;;;;;;;26.41;56.37;158166.16;5101383;28;20509;-80
2022/08/30 08:26:19;;;;;;;7.93;7.30;;;;;;;26.73;55.42;158248.69;5084237;28;20453;-80
2022/08/30 08:28:47;;;;;;;8.13;7.33;;;;;;;27.00;54.88;158319.47;5051565;28;20428;-80
2022/08/30 08:31:15;;;;;;;8.23;7.53;;;;;;;27.08;54.31;158341.75;5084162;28;20454;-82
2022/08/30 08:33:42;;;;;;;7.63;6.97;;;;;;;27.19;53.42;158370.56;5070010;28;20438;-82
2022/08/30 08:36:09;;;;;;;8.23;7.03;;;;;;;27.38;53.12;158419.03;5087542;28;20446;-82
2022/08/30 08:38:35;;;;;;;8.33;7.53;;;;;;;27.02;54.24;158324.72;5071711;28;20465;-82
2022/08/30 08:41:07;;;;;;;7.80;7.10;;;;;;;27.10;55.02;158345.69;5070635;28;20482;-81
2022/08/30 08:43:36;;;;;;;7.47;6.77;;;;;;;27.51;52.86;158451.88;5071781;28;20460;-82
2022/08/30 08:46:14;;;;;;;8.60;7.80;;;;;;;27.52;53.18;158455.78;5071863;28;20434;-82
2022/08/30 08:48:45;;;;;;;8.57;7.87;;;;;;;27.48;53.03;158445.28;5071249;28;20506;-80
2022/08/30 08:54:10;;;;;;;7.93;7.23;;;;;;;27.66;53.19;158492.50;5023440;28;20445;-82
2022/08/30 08:56:38;;;;;;;7.80;7.10;;;;;;;27.41;53.51;158425.63;5071670;28;20547;-82
2022/08/30 08:59:08;;;;;;;8.67;7.90;;;;;;;27.44;52.75;158434.81;5071051;28;20590;-82
2022/08/30 09:01:37;;;;;;;8.40;7.70;;;;;;;27.11;53.29;158348.31;5071421;28;20430;-80
2022/08/30 09:04:10;;;;;;;7.70;6.90;;;;;;;27.13;55.19;158354.88;5070261;28;20442;-79
2022/08/30 09:06:47;;;;;;;8.83;8.00;;;;;;;27.50;53.47;158449.25;5087069;28;20453;-80
2022/08/30 09:09:14;;;;;;;8.60;7.87;;;;;;;27.63;53.23;158483.31;5069807;28;20430;-82
2022/08/30 09:11:42;;;;;;;8.10;7.47;;;;;;;27.46;52.99;158440.06;5071615;28;20528;-81
2022/08/30 09:14:11;;;;;;;8.03;7.23;;;;;;;27.45;52.95;158436.16;5071431;28;20429;-80
2022/08/30 09:16:58;;;;;;;9.57;8.33;;;;;;;27.34;52.42;158408.56;5104185;28;20438;-80
2022/08/30 09:19:44;;;;;;;8.30;7.50;;;;;;;27.33;53.38;158404.63;5070956;28;20461;-82
2022/08/30 09:22:31;;;;;;;8.40;7.70;;;;;;;27.24;53.02;158381.06;5071565;28;20500;-81
2022/08/30 09:25:01;;;;;;;10.90;8.03;;;;;;;26.92;54.14;158298.53;5103368;28;20435;-80
2022/08/30 09:27:31;;;;;;;8.00;7.30;;;;;;;26.46;55.34;158180.56;5071428;28;20944;-80
2022/08/30 09:30:01;;;;;;;8.60;7.80;;;;;;;26.36;56.15;158154.41;5071021;28;20430;-80
2022/08/30 09:32:37;;;;;;;8.63;7.87;;;;;;;26.43;55.57;158172.72;5104124;28;20442;-80
2022/08/30 09:35:06;;;;;;;7.97;7.17;;;;;;;26.46;56.03;158179.25;5074418;28;20414;-80
2022/08/30 09:37:37;;;;;;;9.17;8.10;;;;;;;26.34;55.67;158149.16;5073982;28;20545;-80
2022/08/30 09:40:10;;;;;;;7.53;6.83;;;;;;;26.23;55.72;158120.34;5107005;28;20430;-82
2022/08/30 09:42:37;;;;;;;6.97;6.33;;;;;;;26.18;54.94;158107.25;5073815;28;21027;-82
2022/08/30 09:45:11;;;;;;;6.80;6.20;;;;;;;26.17;54.72;158104.63;5073796;28;20430;-82
2022/08/30 09:47:42;;;;;;;6.57;6.07;;;;;;;26.35;54.71;158151.75;5075160;28;20421;-82
2022/08/30 09:50:10;;;;;;;7.03;6.20;;;;;;;26.40;52.91;158163.53;5074633;28;20418;-82
2022/08/30 09:52:47;;;;;;;7.10;6.40;;;;;;;26.38;53.57;158159.63;5107525;28;20933;-82
2022/08/30 09:55:23;;;;;;;7.50;6.80;;;;;;;26.24;52.90;158121.66;5090285;28;20437;-82
2022/08/30 09:57:57;;;;;;;7.20;6.60;;;;;;;26.28;51.46;158132.13;5089885;28;20479;-82
2022/08/30 10:00:27;;;;;;;7.33;6.67;;;;;;;26.22;53.25;158116.38;5074739;28;20426;-83
2022/08/30 10:03:04;;;;;;;7.73;6.80;;;;;;;26.42;53.60;158170.06;5090810;28;20430;-82
2022/08/30 10:05:36;;;;;;;7.53;6.20;;;;;;;26.37;52.22;158156.97;5073392;28;20919;-82
2022/08/30 10:08:11;;;;;;;7.33;6.70;;;;;;;26.42;52.84;158168.81;5074438;28;20445;-82
2022/08/30 10:10:49;;;;;;;7.73;7.03;;;;;;;26.38;52.83;158159.63;5073726;28;20917;-82
2022/08/30 10:13:31;;;;;;;6.97;6.27;;;;;;;26.10;51.50;158084.94;5090102;28;20525;-82
2022/08/30 10:16:01;;;;;;;7.13;6.43;;;;;;;26.27;51.60;158130.81;5073169;28;20549;-82
2022/08/30 10:18:34;;;;;;;7.33;6.70;;;;;;;26.19;52.57;158109.84;5074175;28;20494;-82
2022/08/30 10:21:07;;;;;;;7.63;6.93;;;;;;;26.09;51.72;158082.28;5107262;28;20438;-82
2022/08/30 10:23:37;;;;;;;7.27;6.57;;;;;;;26.14;52.31;158095.44;5089608;28;20495;-82
2022/08/30 10:26:10;;;;;;;6.93;6.33;;;;;;;26.58;52.85;158212.00;5074333;28;20548;-82
2022/08/30 10:28:42;;;;;;;7.07;6.47;;;;;;;26.35;52.08;158151.75;5089475;28;20434;-82
2022/08/30 10:31:12;;;;;;;6.87;6.27;;;;;;;26.34;51.87;158149.16;5074072;28;20484;-82
2022/08/30 10:33:43;;;;;;;6.67;6.07;;;;;;;26.43;51.71;158172.72;5089941;28;20478;-82
2022/08/30 10:36:11;;;;;;;7.70;6.90;;;;;;;26.39;51.47;158162.25;5074205;28;20532;-82
2022/08/30 10:38:40;;;;;;;6.83;6.23;;;;;;;26.50;51.04;158191.03;5072175;28;20469;-82
2022/08/30 10:41:16;;;;;;;7.23;6.60;;;;;;;26.44;50.16;158174.03;5089442;28;20548;-82
2022/08/30 10:43:49;;;;;;;6.93;6.30;;;;;;;26.38;51.08;158159.63;5072592;28;20833;-82
2022/08/30 10:46:19;;;;;;;7.70;6.90;;;;;;;26.49;49.46;158187.13;5089179;28;20450;-82
2022/08/30 10:48:48;;;;;;;6.40;5.80;;;;;;;26.34;48.90;158147.84;5088739;28;20445;-82
2022/08/30 10:51:20;;;;;;;6.43;5.93;;;;;;;26.42;50.25;158170.06;5106158;28;20454;-82
2022/08/30 10:53:51;;;;;;;7.10;6.40;;;;;;;26.47;49.65;158181.91;5089141;28;20517;-82
2022/08/30 10:56:20;;;;;;;6.97;6.27;;;;;;;26.53;49.68;158197.56;5073438;28;20470;-82
2022/08/30 10:58:47;;;;;;;7.20;6.50;;;;;;;26.63;48.93;158223.81;5073035;28;20905;-82
2022/08/30 11:01:30;;;;;;;6.47;5.97;;;;;;;26.89;48.18;158290.66;5072431;28;20465;-82
2022/08/30 11:04:34;;;;;;;6.97;6.37;;;;;;;27.01;47.20;158322.06;5106032;28;20488;-82
2022/08/30 11:07:09;;;;;;;6.80;6.17;;;;;;;26.87;47.94;158285.44;5062507;28;20472;-82
2022/08/30 11:09:44;;;;;;;6.53;6.03;;;;;;;26.85;47.92;158280.16;5071975;28;20773;-83
2022/08/30 11:12:23;;;;;;;6.97;6.37;;;;;;;26.77;46.60;158260.50;5072298;28;20443;-81
2022/08/30 11:14:50;;;;;;;6.33;5.83;;;;;;;26.74;47.26;158252.59;5105642;28;20434;-82
2022/08/30 11:17:28;;;;;;;6.63;6.03;;;;;;;26.67;46.95;158232.94;5073616;28;20444;-82
2022/08/30 11:19:58;;;;;;;5.93;5.43;;;;;;;26.88;46.35;158289.34;5071502;28;20573;-82
2022/08/30 11:22:28;;;;;;;6.67;6.10;;;;;;;26.84;47.67;158278.88;5073489;28;20450;-82
2022/08/30 11:25:09;;;;;;;6.70;6.10;;;;;;;26.66;48.44;158231.69;5072900;28;20434;-82
2022/08/30 11:27:40;;;;;;;7.23;6.57;;;;;;;26.91;48.37;158297.19;5071886;28;20513;-82
2022/08/30 11:30:40;;;;;;;8.90;6.77;;;;;;;26.69;48.09;158239.50;5072630;28;20429;-82
2022/08/30 11:33:40;;;;;;;6.90;6.40;;;;;;;26.66;48.97;158231.69;5084182;28;20784;-82
2022/08/30 11:36:09;;;;;;;7.13;6.53;;;;;;;26.81;49.11;158269.69;5073040;28;20448;-82